createdAt,value
2019-06-20T00:00:22.009Z,21.1
2019-06-20T00:01:19.222Z,21.1
2019-06-20T00:02:17.828Z,21.1
2019-06-20T00:03:21.852Z,21.1
2019-06-20T00:04:21.211Z,21.1
2019-06-20T00:05:18.682Z,21.1
2019-06-20T00:06:15.772Z,21.1
2019-06-20T00:07:15.802Z,21.1
2019-06-20T00:08:15.637Z,21.1
2019-06-20T00:09:15.671Z,21.1
2019-06-20T00:10:15.843Z,21.1
2019-06-20T00:11:23.677Z,20.9
2019-06-20T00:12:25.159Z,21.1
2019-06-20T00:13:23.672Z,21.1
2019-06-20T00:14:23.554Z,21.1
2019-06-20T00:15:24.086Z,21.1
2019-06-20T00:16:20.467Z,21
2019-06-20T00:17:17.949Z,21.1
2019-06-20T00:18:16.220Z,21.1
2019-06-20T00:19:16.197Z,20.9
2019-06-20T00:20:13.778Z,21
2019-06-20T00:21:22.964Z,21
2019-06-20T00:22:26.417Z,21
2019-06-20T00:23:42.794Z,21
2019-06-20T00:24:43.259Z,21
2019-06-20T00:25:43.551Z,21
2019-06-20T00:26:43.722Z,20.9
2019-06-20T00:27:42.392Z,21
2019-06-20T00:28:40.151Z,20.8
2019-06-20T00:29:38.006Z,21
2019-06-20T00:30:37.955Z,20.9
2019-06-20T00:31:35.170Z,21
2019-06-20T00:32:32.518Z,21
2019-06-20T00:33:31.252Z,20.9
2019-06-20T00:34:29.109Z,20.9
2019-06-20T00:35:28.025Z,21
2019-06-20T00:36:32.824Z,20.8
2019-06-20T00:37:28.660Z,20.7
2019-06-20T00:38:25.533Z,20.9
2019-06-20T00:39:23.737Z,20.9
2019-06-20T00:40:22.251Z,20.9
2019-06-20T00:41:19.547Z,20.9
2019-06-20T00:42:23.242Z,20.8
2019-06-20T00:43:22.456Z,20.9
2019-06-20T00:44:19.795Z,20.9
2019-06-20T00:45:19.555Z,20.9
2019-06-20T00:46:21.659Z,20.9
2019-06-20T00:47:19.360Z,20.9
2019-06-20T00:48:18.083Z,20.9
2019-06-20T00:49:15.266Z,20.9
2019-06-20T00:50:15.361Z,20.8
2019-06-20T00:51:17.506Z,20.9
2019-06-20T00:52:17.552Z,20.8
2019-06-20T00:53:20.803Z,20.8
2019-06-20T00:54:19.667Z,20.8
2019-06-20T00:55:23.874Z,20.8
2019-06-20T00:56:20.960Z,20.8
2019-06-20T00:57:19.324Z,20.8
2019-06-20T00:58:16.801Z,20.8
2019-06-20T00:59:16.055Z,20.8
2019-06-20T01:00:17.270Z,20.8
2019-06-20T01:01:15.976Z,20.8
2019-06-20T01:02:13.380Z,20.8
2019-06-20T01:03:11.451Z,20.8
2019-06-20T01:04:09.537Z,20.8
2019-06-20T01:05:08.405Z,20.7
2019-06-20T01:06:08.860Z,20.8
2019-06-20T01:07:06.672Z,20.7
2019-06-20T01:08:04.913Z,20.7
2019-06-20T01:09:02.216Z,20.7
2019-06-20T01:09:59.182Z,20.7
2019-06-20T01:10:57.995Z,20.7
2019-06-20T01:11:57.126Z,20.7
2019-06-20T01:12:55.658Z,20.7
2019-06-20T01:13:53.024Z,20.7
2019-06-20T01:14:54.273Z,20.7
2019-06-20T01:15:49.489Z,20.7
2019-06-20T01:16:46.721Z,20.7
2019-06-20T01:17:49.993Z,20.7
2019-06-20T01:18:48.545Z,20.7
2019-06-20T01:19:58.133Z,20.7
2019-06-20T01:20:58.420Z,20.7
2019-06-20T01:21:56.322Z,20.7
2019-06-20T01:23:01.183Z,20.7
2019-06-20T01:23:56.554Z,20.7
2019-06-20T01:24:56.048Z,20.7
2019-06-20T01:25:55.269Z,20.7
2019-06-20T01:26:54.164Z,20.7
2019-06-20T01:27:51.292Z,20.7
2019-06-20T01:29:00.747Z,20.7
2019-06-20T01:29:59.340Z,20.7
2019-06-20T01:30:56.139Z,20.6
2019-06-20T01:31:53.139Z,20.7
2019-06-20T01:32:50.300Z,20.7
2019-06-20T01:33:52.487Z,20.6
2019-06-20T01:34:49.627Z,20.6
2019-06-20T01:35:50.452Z,20.7
2019-06-20T01:36:49.091Z,20.6
2019-06-20T01:37:54.742Z,20.6
2019-06-20T01:38:58.345Z,20.6
2019-06-20T01:39:55.387Z,20.6
2019-06-20T01:40:52.938Z,20.6
2019-06-20T01:41:49.736Z,20.6
2019-06-20T01:42:53.403Z,20.6
2019-06-20T01:43:51.500Z,20.6
2019-06-20T01:44:53.647Z,20.6
2019-06-20T01:45:51.163Z,20.6
2019-06-20T01:46:48.444Z,20.5
2019-06-20T01:47:46.727Z,20.6
2019-06-20T01:48:45.853Z,20.6
2019-06-20T01:49:42.883Z,20.6
2019-06-20T01:50:40.308Z,20.6
2019-06-20T01:51:37.493Z,20.6
2019-06-20T01:52:37.919Z,20.6
2019-06-20T01:53:34.924Z,20.6
2019-06-20T01:55:34.139Z,20.6
2019-06-20T01:56:31.213Z,20.6
2019-06-20T01:57:37.276Z,20.6
2019-06-20T01:58:34.803Z,20.6
2019-06-20T01:59:32.024Z,20.6
2019-06-20T02:00:28.860Z,20.6
2019-06-20T02:01:31.702Z,20.6
2019-06-20T02:02:30.620Z,20.6
2019-06-20T02:03:27.281Z,20.6
2019-06-20T02:04:26.160Z,20.6
2019-06-20T02:05:26.729Z,20.6
2019-06-20T02:06:24.791Z,20.4
2019-06-20T02:07:28.104Z,20.6
2019-06-20T02:08:22.631Z,20.6
2019-06-20T02:09:19.930Z,20.6
2019-06-20T02:10:19.166Z,20.6
2019-06-20T02:11:18.102Z,20.6
2019-06-20T02:12:16.830Z,20.6
2019-06-20T02:13:15.229Z,20.6
2019-06-20T02:14:12.216Z,20.6
2019-06-20T02:15:10.752Z,20.6
2019-06-20T02:16:07.553Z,20.6
2019-06-20T02:17:08.186Z,20.6
2019-06-20T02:18:07.740Z,20.6
2019-06-20T02:19:09.011Z,20.6
2019-06-20T02:20:09.573Z,20.6
2019-06-20T02:21:07.176Z,20.6
2019-06-20T02:22:03.954Z,20.6
2019-06-20T02:23:02.224Z,20.6
2019-06-20T02:23:59.181Z,20.6
2019-06-20T02:25:06.364Z,20.6
2019-06-20T02:26:03.604Z,20.6
2019-06-20T02:27:02.423Z,20.6
2019-06-20T02:28:00.733Z,20.6
2019-06-20T02:29:00.424Z,20.6
2019-06-20T02:29:59.501Z,20.6
2019-06-20T02:31:08.065Z,20.6
2019-06-20T02:32:05.565Z,20.5
2019-06-20T02:33:03.029Z,20.6
2019-06-20T02:34:00.240Z,20.6
2019-06-20T02:34:58.026Z,20.6
2019-06-20T02:35:57.576Z,20.6
2019-06-20T02:36:55.285Z,20.6
2019-06-20T02:37:53.182Z,20.6
2019-06-20T02:38:50.347Z,20.6
2019-06-20T02:39:49.342Z,20.6
2019-06-20T02:40:58.918Z,20.6
2019-06-20T02:41:59.834Z,20.6
2019-06-20T02:43:07.462Z,20.6
2019-06-20T02:43:34.765Z,20.4
2019-06-20T02:44:31.573Z,20.6
2019-06-20T02:45:29.118Z,20.6
2019-06-20T02:46:27.190Z,20.6
2019-06-20T02:47:28.729Z,20.6
2019-06-20T02:48:25.699Z,20.6
2019-06-20T02:49:23.181Z,20.6
2019-06-20T02:50:25.168Z,20.6
2019-06-20T02:51:25.497Z,20.6
2019-06-20T02:52:23.302Z,20.6
2019-06-20T02:53:25.581Z,20.6
2019-06-20T02:54:25.626Z,20.5
2019-06-20T02:55:24.374Z,20.6
2019-06-20T02:56:23.232Z,20.6
2019-06-20T02:57:20.318Z,20.6
2019-06-20T02:58:19.763Z,20.5
2019-06-20T02:59:19.066Z,20.6
2019-06-20T03:00:22.145Z,20.5
2019-06-20T03:01:27.307Z,20.4
2019-06-20T03:02:24.518Z,20.6
2019-06-20T03:03:21.649Z,20.5
2019-06-20T03:04:21.818Z,20.5
2019-06-20T03:05:25.232Z,20.5
2019-06-20T03:06:24.478Z,20.5
2019-06-20T03:07:24.543Z,20.5
2019-06-20T03:08:21.784Z,20.5
2019-06-20T03:09:20.241Z,20.5
2019-06-20T03:10:16.991Z,20.5
2019-06-20T03:11:16.348Z,20.5
2019-06-20T03:12:20.142Z,20.5
2019-06-20T03:13:17.381Z,20.5
2019-06-20T03:14:17.679Z,20.5
2019-06-20T03:15:11.965Z,20.5
2019-06-20T03:16:08.734Z,20.5
2019-06-20T03:17:12.887Z,20.5
2019-06-20T03:18:11.743Z,20.5
2019-06-20T03:19:10.396Z,20.5
2019-06-20T03:20:07.446Z,20.5
2019-06-20T03:21:06.991Z,20.5
2019-06-20T03:22:08.997Z,20.5
2019-06-20T03:23:11.731Z,20.4
2019-06-20T03:24:05.713Z,20.5
2019-06-20T03:25:08.074Z,20.5
2019-06-20T03:26:02.332Z,20.5
2019-06-20T03:27:00.407Z,20.4
2019-06-20T03:28:03.474Z,20.4
2019-06-20T03:29:03.350Z,20.4
2019-06-20T03:30:01.788Z,20.4
2019-06-20T03:31:01.726Z,20.5
2019-06-20T03:31:58.402Z,20.4
2019-06-20T03:32:57.962Z,20.4
2019-06-20T03:34:05.268Z,20.4
2019-06-20T03:35:04.589Z,20.4
2019-06-20T03:36:07.235Z,20.4
2019-06-20T03:37:02.697Z,20.3
2019-06-20T03:38:00.929Z,20.4
2019-06-20T03:39:00.968Z,20.4
2019-06-20T03:39:59.163Z,20.4
2019-06-20T03:40:56.547Z,20.4
2019-06-20T03:41:54.355Z,20.4
2019-06-20T03:42:51.993Z,20.4
2019-06-20T03:43:53.479Z,20.4
2019-06-20T03:45:02.099Z,20.4
2019-06-20T03:45:02.440Z,20.4
2019-06-20T03:45:52.328Z,20.4
2019-06-20T03:46:49.501Z,20.4
2019-06-20T03:47:48.938Z,20.4
2019-06-20T03:48:52.004Z,20.4
2019-06-20T03:49:54.538Z,20.4
2019-06-20T03:50:52.911Z,20.4
2019-06-20T03:51:52.538Z,20.4
2019-06-20T03:52:49.598Z,20.4
2019-06-20T03:53:47.729Z,20.4
2019-06-20T03:54:49.139Z,20.2
2019-06-20T03:55:48.808Z,20.3
2019-06-20T03:56:56.391Z,20.3
2019-06-20T03:57:50.722Z,20.3
2019-06-20T03:58:57.828Z,20.3
2019-06-20T03:59:54.706Z,20.3
2019-06-20T04:00:55.185Z,20.3
2019-06-20T04:01:54.674Z,20.3
2019-06-20T04:02:51.579Z,20.3
2019-06-20T04:03:48.345Z,20.3
2019-06-20T04:04:49.513Z,20.3
2019-06-20T04:05:47.313Z,20.3
2019-06-20T04:06:57.871Z,20.3
2019-06-20T04:07:52.167Z,20.3
2019-06-20T04:08:49.978Z,20.3
2019-06-20T04:09:46.936Z,20.3
2019-06-20T04:10:43.729Z,20.3
2019-06-20T04:11:41.330Z,20.3
2019-06-20T04:12:42.463Z,20.3
2019-06-20T04:13:42.811Z,20.3
2019-06-20T04:14:40.635Z,20.3
2019-06-20T04:15:39.409Z,20.3
2019-06-20T04:16:40.823Z,20.3
2019-06-20T04:17:39.113Z,20.3
2019-06-20T04:18:37.265Z,20.3
2019-06-20T04:19:34.418Z,20.3
2019-06-20T04:20:34.810Z,20.3
2019-06-20T04:21:32.856Z,20.3
2019-06-20T04:22:34.721Z,20.3
2019-06-20T04:23:32.663Z,20.3
2019-06-20T04:24:31.018Z,20.2
2019-06-20T04:25:30.123Z,20.3
2019-06-20T04:26:27.307Z,20.3
2019-06-20T04:27:24.171Z,20.3
2019-06-20T04:28:22.887Z,20.3
2019-06-20T04:29:21.723Z,20.2
2019-06-20T04:30:27.751Z,20.3
2019-06-20T04:31:26.317Z,20.3
2019-06-20T04:32:25.837Z,20.2
2019-06-20T04:33:25.052Z,20.2
2019-06-20T04:34:23.257Z,20.2
2019-06-20T04:35:20.449Z,20.2
2019-06-20T04:36:17.952Z,20.1
2019-06-20T04:37:18.103Z,20.2
2019-06-20T04:38:21.592Z,20.2
2019-06-20T04:39:25.087Z,20.2
2019-06-20T04:40:24.247Z,20.2
2019-06-20T04:41:24.247Z,20.2
2019-06-20T04:42:25.140Z,20.2
2019-06-20T04:43:34.122Z,20.2
2019-06-20T04:44:31.817Z,20.2
2019-06-20T04:45:35.580Z,20.2
2019-06-20T04:46:32.498Z,20.2
2019-06-20T04:47:29.850Z,20.2
2019-06-20T04:48:39.250Z,20.1
2019-06-20T04:49:39.442Z,20.2
2019-06-20T04:50:37.969Z,20.2
2019-06-20T04:51:43.136Z,20.2
2019-06-20T04:52:46.998Z,20.2
2019-06-20T04:53:44.050Z,20.2
2019-06-20T04:54:44.200Z,20.2
2019-06-20T04:55:42.981Z,20.2
2019-06-20T04:56:41.002Z,20.2
2019-06-20T04:57:40.191Z,20.2
2019-06-20T04:58:44.979Z,20.2
2019-06-20T04:59:42.590Z,20.2
2019-06-20T05:00:47.817Z,20.2
2019-06-20T05:01:45.450Z,20.2
2019-06-20T05:02:42.185Z,20.2
2019-06-20T05:03:43.099Z,20
2019-06-20T05:04:43.062Z,20.1
2019-06-20T05:05:40.871Z,20.2
2019-06-20T05:06:47.467Z,20.1
2019-06-20T05:07:49.628Z,20.2
2019-06-20T05:08:53.186Z,20.2
2019-06-20T05:09:55.279Z,20.1
2019-06-20T05:10:52.461Z,20.2
2019-06-20T05:11:49.663Z,20.2
2019-06-20T05:12:48.259Z,20.2
2019-06-20T05:13:46.310Z,20.1
2019-06-20T05:14:42.864Z,20.1
2019-06-20T05:15:52.038Z,20.2
2019-06-20T05:15:52.491Z,20.2
2019-06-20T05:15:52.919Z,20.2
2019-06-20T05:16:41.676Z,20.2
2019-06-20T05:17:43.074Z,20.2
2019-06-20T05:18:39.374Z,20.1
2019-06-20T05:19:39.513Z,20.2
2019-06-20T05:20:38.595Z,20.2
2019-06-20T05:21:39.024Z,20.2
2019-06-20T05:22:33.026Z,20.1
2019-06-20T05:23:36.026Z,20.2
2019-06-20T05:24:37.052Z,20.2
2019-06-20T05:25:35.880Z,20.2
2019-06-20T05:26:37.652Z,20.1
2019-06-20T05:27:34.222Z,20
2019-06-20T05:28:32.355Z,20.2
2019-06-20T05:29:32.986Z,20.1
2019-06-20T05:30:33.503Z,20.1
2019-06-20T05:31:31.739Z,20.1
2019-06-20T05:32:31.739Z,20.1
2019-06-20T05:33:31.975Z,20.1
2019-06-20T05:34:30.188Z,20.1
2019-06-20T05:35:27.496Z,20.1
2019-06-20T05:36:23.977Z,20.1
2019-06-20T05:37:28.427Z,20.1
2019-06-20T05:38:30.828Z,20.1
2019-06-20T05:39:30.472Z,20.1
2019-06-20T05:40:28.160Z,20.1
2019-06-20T05:41:26.767Z,20.1
2019-06-20T05:42:24.334Z,20.1
2019-06-20T05:43:22.450Z,20.1
2019-06-20T05:44:19.649Z,20.1
2019-06-20T05:45:20.853Z,20.1
2019-06-20T05:46:24.159Z,20.1
2019-06-20T05:47:25.336Z,20.1
2019-06-20T05:48:25.384Z,20.1
2019-06-20T05:49:25.429Z,20.1
2019-06-20T05:50:25.368Z,20.1
2019-06-20T05:51:22.404Z,20.1
2019-06-20T05:52:24.725Z,20.1
2019-06-20T05:53:27.311Z,20.1
2019-06-20T05:54:27.360Z,20.1
2019-06-20T05:55:26.227Z,20.1
2019-06-20T05:56:39.978Z,20.1
2019-06-20T05:57:37.134Z,20.1
2019-06-20T05:58:36.710Z,20.1
2019-06-20T05:59:40.962Z,20.1
2019-06-20T06:00:42.894Z,20.1
2019-06-20T06:01:47.473Z,20.1
2019-06-20T06:02:48.848Z,20.1
2019-06-20T06:03:49.900Z,20.1
2019-06-20T06:04:48.555Z,20.1
2019-06-20T06:05:45.955Z,20.1
2019-06-20T06:06:43.460Z,20.1
2019-06-20T06:07:40.503Z,20.1
2019-06-20T06:08:40.914Z,20.1
2019-06-20T06:09:38.316Z,20.1
2019-06-20T06:10:35.048Z,20.1
2019-06-20T06:12:12.030Z,20.1
2019-06-20T06:15:01.108Z,20.2
2019-06-20T06:15:57.700Z,20.1
2019-06-20T06:16:59.843Z,20.1
2019-06-20T06:18:02.623Z,20.2
2019-06-20T06:19:04.023Z,20.1
2019-06-20T06:20:08.271Z,20.2
2019-06-20T06:21:11.166Z,20.1
2019-06-20T06:22:13.457Z,20.2
2019-06-20T06:23:20.453Z,20.1
2019-06-20T06:24:19.372Z,20.1
2019-06-20T06:25:24.402Z,20.2
2019-06-20T06:26:22.831Z,20.1
2019-06-20T06:27:21.420Z,20.2
2019-06-20T06:28:22.258Z,20.2
2019-06-20T06:29:21.486Z,20.2
2019-06-20T06:30:22.737Z,20.2
2019-06-20T06:31:25.531Z,20.2
2019-06-20T06:32:39.679Z,20.2
2019-06-20T06:32:40.214Z,20.2
2019-06-20T06:32:40.499Z,20.2
2019-06-20T06:33:27.581Z,20.2
2019-06-20T06:34:27.592Z,20.1
2019-06-20T06:35:29.848Z,20.2
2019-06-20T06:36:30.409Z,20.2
2019-06-20T06:37:36.140Z,20.2
2019-06-20T06:38:35.981Z,20.1
2019-06-20T06:39:34.799Z,20.2
2019-06-20T06:40:33.557Z,20.2
2019-06-20T06:41:32.980Z,20.2
2019-06-20T06:42:31.888Z,20.2
2019-06-20T06:43:41.750Z,20.1
2019-06-20T06:43:42.321Z,20.1
2019-06-20T06:44:34.567Z,20.2
2019-06-20T06:45:42.006Z,20.2
2019-06-20T06:46:51.327Z,20.2
2019-06-20T06:46:54.224Z,20.2
2019-06-20T06:46:59.067Z,20.2
2019-06-20T06:47:45.698Z,20.2
2019-06-20T06:48:45.705Z,20.1
2019-06-20T06:49:45.484Z,20.1
2019-06-20T06:50:44.397Z,20.1
2019-06-20T06:51:50.066Z,20.2
2019-06-20T06:52:57.687Z,20.1
2019-06-20T06:53:56.905Z,20.1
2019-06-20T06:54:56.808Z,20.1
2019-06-20T06:55:57.419Z,20.2
2019-06-20T06:56:57.380Z,20.1
2019-06-20T06:57:56.397Z,20.1
2019-06-20T06:59:02.023Z,20.2
2019-06-20T07:00:01.038Z,20.1
2019-06-20T07:01:00.370Z,20.2
2019-06-20T07:02:02.363Z,20.2
2019-06-20T07:03:03.633Z,20.2
2019-06-20T07:04:02.141Z,20
2019-06-20T07:05:07.685Z,20.1
2019-06-20T07:06:09.796Z,20.2
2019-06-20T07:07:09.886Z,20.2
2019-06-20T07:08:09.581Z,20.2
2019-06-20T07:09:17.338Z,20.2
2019-06-20T07:10:16.893Z,20.2
2019-06-20T07:11:18.511Z,20.2
2019-06-20T07:12:22.036Z,20.2
2019-06-20T07:13:20.987Z,20.3
2019-06-20T07:14:20.251Z,20.3
2019-06-20T07:15:20.572Z,20.3
2019-06-20T07:16:21.499Z,20.3
2019-06-20T07:17:20.914Z,20.1
2019-06-20T07:18:21.282Z,20.3
2019-06-20T07:19:20.103Z,20.3
2019-06-20T07:20:20.043Z,20.3
2019-06-20T07:21:22.261Z,20.3
2019-06-20T07:22:22.008Z,20.4
2019-06-20T07:23:28.935Z,20.4
2019-06-20T07:24:29.165Z,20.4
2019-06-20T07:25:31.132Z,20.4
2019-06-20T07:26:30.378Z,20.4
2019-06-20T07:27:40.712Z,20.5
2019-06-20T07:28:40.276Z,20.4
2019-06-20T07:29:38.809Z,20.5
2019-06-20T07:30:41.151Z,20.5
2019-06-20T07:31:39.727Z,20.5
2019-06-20T07:32:38.521Z,20.5
2019-06-20T07:33:39.932Z,20.5
2019-06-20T07:34:41.139Z,20.5
2019-06-20T07:35:41.994Z,20.5
2019-06-20T07:36:39.887Z,20.5
2019-06-20T07:37:41.873Z,20.5
2019-06-20T07:38:40.436Z,20.5
2019-06-20T07:39:48.491Z,20.5
2019-06-20T07:40:54.206Z,20.6
2019-06-20T07:41:53.881Z,20.5
2019-06-20T07:42:54.028Z,20.6
2019-06-20T07:44:00.062Z,20.6
2019-06-20T07:45:01.673Z,20.6
2019-06-20T07:46:03.880Z,20.6
2019-06-20T07:47:17.054Z,20.6
2019-06-20T07:47:17.662Z,20.6
2019-06-20T07:47:18.003Z,20.6
2019-06-20T07:48:04.618Z,20.6
2019-06-20T07:49:03.935Z,20.6
2019-06-20T07:50:06.695Z,20.6
2019-06-20T07:51:05.845Z,20.7
2019-06-20T07:52:05.799Z,20.7
2019-06-20T07:53:07.986Z,20.7
2019-06-20T07:54:07.083Z,20.7
2019-06-20T07:55:08.208Z,20.8
2019-06-20T07:56:09.383Z,20.8
2019-06-20T07:57:08.877Z,20.7
2019-06-20T07:58:08.362Z,20.8
2019-06-20T07:59:08.990Z,20.8
2019-06-20T08:00:08.099Z,20.9
2019-06-20T08:01:16.666Z,20.9
2019-06-20T08:02:15.418Z,20.9
2019-06-20T08:03:30.154Z,21
2019-06-20T08:04:28.504Z,21
2019-06-20T08:05:28.137Z,21
2019-06-20T08:06:40.674Z,21
2019-06-20T08:07:40.037Z,21
2019-06-20T08:08:39.521Z,21.1
2019-06-20T08:09:45.110Z,20.9
2019-06-20T08:10:42.096Z,21.1
2019-06-20T08:11:41.421Z,21.1
2019-06-20T08:12:40.126Z,21.1
2019-06-20T08:13:40.343Z,21.2
2019-06-20T08:14:41.651Z,21.2
2019-06-20T08:15:40.570Z,21.2
2019-06-20T08:16:42.882Z,21.2
2019-06-20T08:17:42.029Z,21.3
2019-06-20T08:18:50.273Z,21.3
2019-06-20T08:20:07.465Z,21.3
2019-06-20T08:21:08.791Z,21.4
2019-06-20T08:22:22.388Z,21.4
2019-06-20T08:23:26.318Z,21.4
2019-06-20T08:24:28.829Z,21.4
2019-06-20T08:25:25.500Z,21.4
2019-06-20T08:26:26.725Z,21.4
2019-06-20T08:27:27.854Z,21.4
2019-06-20T08:28:26.591Z,21.5
2019-06-20T08:29:28.048Z,21.3
2019-06-20T08:30:28.942Z,21.5
2019-06-20T08:31:28.821Z,21.5
2019-06-20T08:32:31.610Z,21.6
2019-06-20T08:33:33.295Z,21.6
2019-06-20T08:34:41.338Z,21.5
2019-06-20T08:35:38.529Z,21.5
2019-06-20T08:36:43.115Z,21.6
2019-06-20T08:37:49.818Z,21.6
2019-06-20T08:38:57.445Z,21.6
2019-06-20T08:40:00.012Z,21.6
2019-06-20T08:41:04.317Z,21.6
2019-06-20T08:42:04.421Z,21.6
2019-06-20T08:43:08.834Z,21.6
2019-06-20T08:44:07.989Z,21.6
2019-06-20T08:45:13.868Z,21.6
2019-06-20T08:46:11.846Z,21.7
2019-06-20T08:47:13.599Z,21.7
2019-06-20T08:48:14.777Z,21.7
2019-06-20T08:49:15.402Z,21.8
2019-06-20T08:50:18.300Z,21.8
2019-06-20T08:51:18.285Z,21.8
2019-06-20T08:52:18.476Z,21.8
2019-06-20T08:53:20.218Z,21.8
2019-06-20T08:54:19.010Z,21.8
2019-06-20T08:55:18.428Z,21.9
2019-06-20T08:56:19.759Z,21.9
2019-06-20T08:57:23.047Z,21.9
2019-06-20T08:58:19.152Z,21.9
2019-06-20T08:59:24.795Z,21.9
2019-06-20T09:00:21.599Z,21.9
2019-06-20T09:01:20.784Z,21.9
2019-06-20T09:02:20.770Z,22
2019-06-20T09:03:20.363Z,22
2019-06-20T09:04:22.403Z,22
2019-06-20T09:05:25.373Z,22
2019-06-20T09:06:22.027Z,22.1
2019-06-20T09:07:21.785Z,22.1
2019-06-20T09:08:23.446Z,22.1
2019-06-20T09:09:25.903Z,22.1
2019-06-20T09:10:26.147Z,22.2
2019-06-20T09:11:26.119Z,22.2
2019-06-20T09:12:29.535Z,22.2
2019-06-20T09:13:36.686Z,22.2
2019-06-20T09:14:35.856Z,22.2
2019-06-20T09:15:35.596Z,22.2
2019-06-20T09:16:42.822Z,22.3
2019-06-20T09:17:43.627Z,22.3
2019-06-20T09:18:47.587Z,22.3
2019-06-20T09:19:47.790Z,22.3
2019-06-20T09:20:31.122Z,22.3
2019-06-20T09:21:32.831Z,22.4
2019-06-20T09:22:33.655Z,22.4
2019-06-20T09:23:35.679Z,22.4
2019-06-20T09:24:32.902Z,22.4
2019-06-20T09:25:33.784Z,22.4
2019-06-20T09:26:33.213Z,22.4
2019-06-20T09:27:32.583Z,22.4
2019-06-20T09:28:42.162Z,22.4
2019-06-20T09:29:43.087Z,22.4
2019-06-20T09:30:50.668Z,22.4
2019-06-20T09:31:52.455Z,22.4
2019-06-20T09:32:52.258Z,22.4
2019-06-20T09:33:56.196Z,22.4
2019-06-20T09:34:56.536Z,22.3
2019-06-20T09:35:55.602Z,22.4
2019-06-20T09:36:55.175Z,22.4
2019-06-20T09:37:57.131Z,22.4
2019-06-20T09:38:57.832Z,22.4
2019-06-20T09:39:59.196Z,22.5
2019-06-20T09:40:59.481Z,22.5
2019-06-20T09:42:05.249Z,22.5
2019-06-20T09:43:04.367Z,22.5
2019-06-20T09:44:06.658Z,22.5
2019-06-20T09:45:06.841Z,22.5
2019-06-20T09:46:09.390Z,22.5
2019-06-20T09:47:09.348Z,22.5
2019-06-20T09:48:12.056Z,22.5
2019-06-20T09:49:12.872Z,22.5
2019-06-20T09:50:13.158Z,22.5
2019-06-20T09:51:16.975Z,22.5
2019-06-20T09:52:22.090Z,22.5
2019-06-20T09:53:21.645Z,22.5
2019-06-20T09:54:24.293Z,22.4
2019-06-20T09:55:24.429Z,22.4
2019-06-20T09:56:27.906Z,22.5
2019-06-20T09:57:27.024Z,22.5
2019-06-20T09:58:26.788Z,22.4
2019-06-20T09:59:27.782Z,22.5
2019-06-20T10:00:31.867Z,22.5
2019-06-20T10:01:31.553Z,22.5
2019-06-20T10:02:35.339Z,22.5
2019-06-20T10:03:35.956Z,22.6
2019-06-20T10:04:35.111Z,22.6
2019-06-20T10:05:34.958Z,22.6
2019-06-20T10:06:41.147Z,22.6
2019-06-20T10:07:41.694Z,22.6
2019-06-20T10:08:44.146Z,22.6
2019-06-20T10:09:47.082Z,22.6
2019-06-20T10:10:49.355Z,22.6
2019-06-20T10:11:47.971Z,22.5
2019-06-20T10:12:49.647Z,22.7
2019-06-20T10:13:52.240Z,22.7
2019-06-20T10:14:53.564Z,22.7
2019-06-20T10:15:55.681Z,22.8
2019-06-20T10:17:00.264Z,22.8
2019-06-20T10:18:00.687Z,22.8
2019-06-20T10:19:00.226Z,22.7
2019-06-20T10:20:00.094Z,22.8
2019-06-20T10:21:02.189Z,22.8
2019-06-20T10:22:01.714Z,22.8
2019-06-20T10:23:01.168Z,22.9
2019-06-20T10:24:00.524Z,22.9
2019-06-20T10:25:00.957Z,22.9
2019-06-20T10:26:10.419Z,22.9
2019-06-20T10:27:11.121Z,22.9
2019-06-20T10:28:17.390Z,22.9
2019-06-20T10:29:20.217Z,22.9
2019-06-20T10:30:23.701Z,22.9
2019-06-20T10:31:26.640Z,22.9
2019-06-20T10:32:31.137Z,23
2019-06-20T10:33:37.087Z,23
2019-06-20T10:34:34.229Z,23
2019-06-20T10:35:36.521Z,23
2019-06-20T10:36:36.332Z,23
2019-06-20T10:37:35.662Z,23.1
2019-06-20T10:38:35.696Z,23.1
2019-06-20T10:39:36.297Z,23
2019-06-20T10:40:39.558Z,23.1
2019-06-20T10:41:45.200Z,23.1
2019-06-20T10:42:46.080Z,23.2
2019-06-20T10:43:49.553Z,23.2
2019-06-20T10:44:56.238Z,23.2
2019-06-20T10:45:58.571Z,23.2
2019-06-20T10:46:59.942Z,23.3
2019-06-20T10:47:59.508Z,23.3
2019-06-20T10:49:02.933Z,23.3
2019-06-20T10:50:06.488Z,23.4
2019-06-20T10:51:07.305Z,23.4
2019-06-20T10:52:07.770Z,23.4
2019-06-20T10:53:10.353Z,23.4
2019-06-20T10:54:14.472Z,23.4
2019-06-20T10:55:14.461Z,23.5
2019-06-20T10:56:14.445Z,23.5
2019-06-20T10:57:13.889Z,23.5
2019-06-20T10:58:17.916Z,23.5
2019-06-20T10:59:30.635Z,23.5
2019-06-20T11:00:31.183Z,23.5
2019-06-20T11:01:28.039Z,23.5
2019-06-20T11:02:31.117Z,23.6
2019-06-20T11:03:32.550Z,23.5
2019-06-20T11:04:35.529Z,23.6
2019-06-20T11:05:39.068Z,23.6
2019-06-20T11:06:39.876Z,23.6
2019-06-20T11:07:40.773Z,23.6
2019-06-20T11:08:43.281Z,23.6
2019-06-20T11:09:49.538Z,23.6
2019-06-20T11:10:50.875Z,23.6
2019-06-20T11:11:51.913Z,23.6
2019-06-20T11:12:56.666Z,23.6
2019-06-20T11:14:00.302Z,23.6
2019-06-20T11:15:00.268Z,23.6
2019-06-20T11:16:02.991Z,23.6
2019-06-20T11:17:03.497Z,23.6
2019-06-20T11:18:20.537Z,23.6
2019-06-20T11:19:18.295Z,23.7
2019-06-20T11:20:22.433Z,23.7
2019-06-20T11:21:21.582Z,23.7
2019-06-20T11:22:24.273Z,23.7
2019-06-20T11:23:33.203Z,23.7
2019-06-20T11:24:37.424Z,23.7
2019-06-20T11:25:41.978Z,23.7
2019-06-20T11:26:41.130Z,23.7
2019-06-20T11:27:43.110Z,23.7
2019-06-20T11:28:48.704Z,23.7
2019-06-20T11:29:46.674Z,23.7
2019-06-20T11:30:58.042Z,23.7
2019-06-20T11:30:59.899Z,23.7
2019-06-20T11:31:00.595Z,23.7
2019-06-20T11:31:54.628Z,23.7
2019-06-20T11:32:55.370Z,23.7
2019-06-20T11:33:55.939Z,23.7
2019-06-20T11:34:55.914Z,23.7
2019-06-20T11:35:55.947Z,23.7
2019-06-20T11:36:56.974Z,23.7
2019-06-20T11:38:00.323Z,23.7
2019-06-20T11:39:05.541Z,23.7
2019-06-20T11:40:04.023Z,23.7
2019-06-20T11:41:05.834Z,23.7
2019-06-20T11:42:05.847Z,23.7
2019-06-20T11:43:07.025Z,23.7
2019-06-20T11:44:09.331Z,23.7
2019-06-20T11:45:09.080Z,23.7
2019-06-20T11:46:08.630Z,23.7
2019-06-20T11:47:08.870Z,23.7
2019-06-20T11:48:08.509Z,23.7
2019-06-20T11:49:08.892Z,23.7
2019-06-20T11:50:12.282Z,23.7
2019-06-20T11:51:14.136Z,23.5
2019-06-20T11:52:16.185Z,23.7
2019-06-20T11:53:14.264Z,23.7
2019-06-20T11:54:14.192Z,23.7
2019-06-20T11:55:14.683Z,23.7
2019-06-20T11:56:28.515Z,23.7
2019-06-20T11:57:29.889Z,23.7
2019-06-20T11:58:37.545Z,23.7
2019-06-20T11:59:34.675Z,23.6
2019-06-20T12:00:34.226Z,23.7
2019-06-20T12:01:34.563Z,23.7
2019-06-20T12:02:44.262Z,23.6
2019-06-20T12:03:44.542Z,23.7
2019-06-20T12:04:49.115Z,23.7
2019-06-20T12:05:47.936Z,23.7
2019-06-20T12:06:47.609Z,23.7
2019-06-20T12:07:51.419Z,23.7
2019-06-20T12:08:53.692Z,23.7
2019-06-20T12:09:54.816Z,23.7
2019-06-20T12:11:00.701Z,23.7
2019-06-20T12:12:02.564Z,23.7
2019-06-20T12:13:02.490Z,23.7
2019-06-20T12:14:02.909Z,23.7
2019-06-20T12:15:07.701Z,23.7
2019-06-20T12:16:06.814Z,23.7
2019-06-20T12:17:12.395Z,23.7
2019-06-20T12:18:16.510Z,23.7
2019-06-20T12:19:23.147Z,23.5
2019-06-20T12:20:25.825Z,23.7
2019-06-20T12:21:26.719Z,23.7
2019-06-20T12:22:29.570Z,23.7
2019-06-20T12:23:33.489Z,23.7
2019-06-20T12:24:33.111Z,23.7
2019-06-20T12:25:35.119Z,23.7
2019-06-20T12:26:35.785Z,23.7
2019-06-20T12:27:36.085Z,23.7
2019-06-20T12:28:35.931Z,23.7
2019-06-20T12:29:37.728Z,23.7
2019-06-20T12:30:38.437Z,23.6
2019-06-20T12:31:37.771Z,23.7
2019-06-20T12:32:40.646Z,23.6
2019-06-20T12:33:45.087Z,23.7
2019-06-20T12:34:45.014Z,23.7
2019-06-20T12:35:46.751Z,23.5
2019-06-20T12:36:58.952Z,23.6
2019-06-20T12:38:01.288Z,23.7
2019-06-20T12:39:14.680Z,23.6
2019-06-20T12:40:18.773Z,23.6
2019-06-20T12:41:18.508Z,23.6
2019-06-20T12:43:30.708Z,23.6
2019-06-20T12:44:30.715Z,23.6
2019-06-20T12:45:33.471Z,23.6
2019-06-20T12:46:33.907Z,23.5
2019-06-20T12:47:34.441Z,23.5
2019-06-20T12:48:34.708Z,23.5
2019-06-20T12:49:38.971Z,23.5
2019-06-20T12:50:38.519Z,23.5
2019-06-20T12:51:39.088Z,23.5
2019-06-20T12:52:42.598Z,23.5
2019-06-20T12:53:50.948Z,23.5
2019-06-20T12:54:49.721Z,23.4
2019-06-20T12:55:54.226Z,23.5
2019-06-20T12:56:55.557Z,23.5
2019-06-20T12:58:05.842Z,23.4
2019-06-20T12:59:06.213Z,23.5
2019-06-20T13:00:08.602Z,23.5
2019-06-20T13:01:08.155Z,23.5
2019-06-20T13:02:07.686Z,23.5
2019-06-20T13:04:11.887Z,23.5
2019-06-20T13:05:12.792Z,23.5
2019-06-20T13:06:19.127Z,23.5
2019-06-20T13:07:18.980Z,23.4
2019-06-20T13:08:19.265Z,23.4
2019-06-20T13:09:22.526Z,23.4
2019-06-20T13:10:23.273Z,23.4
2019-06-20T13:11:25.467Z,23.4
2019-06-20T13:12:25.011Z,23.4
2019-06-20T13:13:27.775Z,23.4
2019-06-20T13:14:29.661Z,23.4
2019-06-20T13:15:37.656Z,23.5
2019-06-20T13:16:43.975Z,23.4
2019-06-20T13:17:47.123Z,23.5
2019-06-20T13:18:50.387Z,23.5
2019-06-20T13:19:49.752Z,23.5
2019-06-20T13:20:59.672Z,23.5
2019-06-20T13:21:59.859Z,23.5
2019-06-20T13:23:02.474Z,23.5
2019-06-20T13:24:09.059Z,23.5